createdAt,value
2022-11-16T00:01:45.169Z,3.00
2022-11-16T00:04:12.469Z,3.10
2022-11-16T00:06:39.852Z,3.00
2022-11-16T00:09:27.179Z,3.00
2022-11-16T00:11:58.124Z,3.00
2022-11-16T00:14:26.415Z,3.00
2022-11-16T00:16:53.138Z,3.00
2022-11-16T00:19:22.034Z,3.00
2022-11-16T00:21:48.799Z,3.00
2022-11-16T00:24:16.817Z,3.10
2022-11-16T00:26:43.635Z,3.10
2022-11-16T00:29:17.124Z,3.00
2022-11-16T00:31:44.520Z,3.00
2022-11-16T00:34:11.353Z,3.00
2022-11-16T00:36:38.076Z,2.90
2022-11-16T00:39:05.221Z,2.90
2022-11-16T00:41:32.004Z,2.90
2022-11-16T00:43:58.753Z,3.00
2022-11-16T00:46:25.463Z,3.00
2022-11-16T00:48:52.229Z,3.00
2022-11-16T00:51:18.962Z,3.10
2022-11-16T00:53:45.719Z,3.10
2022-11-16T00:56:12.467Z,3.10
2022-11-16T00:58:39.216Z,3.10
2022-11-16T01:01:07.069Z,3.10
2022-11-16T01:03:34.644Z,3.10
2022-11-16T01:06:05.459Z,3.10
2022-11-16T01:08:32.790Z,3.10
2022-11-16T01:11:18.165Z,3.10
2022-11-16T01:13:44.952Z,3.10
2022-11-16T01:16:15.595Z,3.10
2022-11-16T01:18:43.191Z,3.10
2022-11-16T01:21:10.066Z,3.10
2022-11-16T01:23:36.873Z,3.10
2022-11-16T01:26:03.651Z,3.00
2022-11-16T01:28:30.999Z,3.00
2022-11-16T01:30:57.964Z,3.00
2022-11-16T01:33:24.764Z,3.00
2022-11-16T01:35:51.574Z,2.90
2022-11-16T01:38:18.328Z,2.90
2022-11-16T01:40:45.126Z,2.90
2022-11-16T01:43:23.986Z,2.90
2022-11-16T01:45:50.711Z,2.90
2022-11-16T01:48:19.702Z,2.90
2022-11-16T01:50:47.425Z,2.90
2022-11-16T01:53:14.756Z,3.00
2022-11-16T01:55:43.353Z,2.90
2022-11-16T01:58:13.918Z,3.00
2022-11-16T02:00:40.853Z,3.00
2022-11-16T02:03:07.698Z,3.00
2022-11-16T02:05:42.322Z,3.00
2022-11-16T02:08:47.507Z,3.00
2022-11-16T02:11:29.329Z,3.10
2022-11-16T02:13:56.057Z,3.10
2022-11-16T02:16:58.479Z,3.10
2022-11-16T02:19:30.885Z,3.10
2022-11-16T02:22:08.012Z,3.10
2022-11-16T02:24:37.453Z,3.10
2022-11-16T02:27:33.991Z,3.00
2022-11-16T02:30:01.122Z,3.00
2022-11-16T02:32:37.683Z,3.00
2022-11-16T02:35:09.971Z,3.00
2022-11-16T02:37:39.363Z,3.00
2022-11-16T02:40:09.194Z,3.00
2022-11-16T02:42:39.472Z,3.00
2022-11-16T02:45:06.887Z,3.00
2022-11-16T02:47:35.461Z,3.00
2022-11-16T02:50:04.654Z,3.00
2022-11-16T02:52:31.410Z,2.90
2022-11-16T02:54:58.149Z,3.00
2022-11-16T02:57:27.928Z,2.90
2022-11-16T02:59:56.629Z,2.90
2022-11-16T03:02:29.586Z,2.90
2022-11-16T03:05:08.379Z,2.90
2022-11-16T03:07:39.866Z,2.90
2022-11-16T03:10:06.890Z,2.90
2022-11-16T03:12:35.645Z,2.80
2022-11-16T03:15:04.637Z,2.80
2022-11-16T03:17:38.116Z,2.80
2022-11-16T03:20:04.965Z,2.70
2022-11-16T03:22:35.493Z,2.70
2022-11-16T03:25:02.772Z,2.70
2022-11-16T03:27:35.278Z,2.70
2022-11-16T03:30:10.914Z,2.70
2022-11-16T03:32:48.767Z,2.80
2022-11-16T03:35:19.540Z,2.70
2022-11-16T03:37:47.400Z,2.70
2022-11-16T03:40:14.159Z,2.70
2022-11-16T03:42:42.027Z,2.80
2022-11-16T03:45:09.337Z,2.80
2022-11-16T03:47:36.106Z,2.80
2022-11-16T03:50:03.470Z,2.80
2022-11-16T03:52:30.275Z,2.80
2022-11-16T03:54:57.056Z,2.80
2022-11-16T03:57:23.779Z,2.80
2022-11-16T03:59:50.468Z,2.80
2022-11-16T04:02:17.228Z,2.80
2022-11-16T04:05:02.466Z,2.80
2022-11-16T04:07:48.117Z,2.80
2022-11-16T04:10:33.611Z,2.80
2022-11-16T04:13:19.094Z,2.80
2022-11-16T04:16:04.612Z,2.80
2022-11-16T04:18:50.060Z,2.80
2022-11-16T04:21:42.135Z,2.80
2022-11-16T04:24:23.554Z,2.80
2022-11-16T04:27:10.660Z,2.80
2022-11-16T04:29:37.593Z,2.70
2022-11-16T04:32:23.278Z,2.70
2022-11-16T04:35:08.622Z,2.60
2022-11-16T04:37:50.484Z,2.60
2022-11-16T04:40:17.606Z,2.50
2022-11-16T04:42:50.155Z,2.40
2022-11-16T04:45:35.604Z,2.40
2022-11-16T04:48:02.355Z,2.40
2022-11-16T04:50:29.136Z,2.40
2022-11-16T04:52:55.881Z,2.30
2022-11-16T04:55:22.677Z,2.30
2022-11-16T04:57:49.468Z,2.30
2022-11-16T05:00:16.571Z,2.30
2022-11-16T05:02:43.310Z,2.30
2022-11-16T05:05:10.172Z,2.40
2022-11-16T05:07:37.026Z,2.30
2022-11-16T05:10:04.479Z,2.30
2022-11-16T05:12:31.558Z,2.30
2022-11-16T05:14:58.392Z,2.30
2022-11-16T05:17:25.801Z,2.30
2022-11-16T05:20:11.789Z,2.30
2022-11-16T05:22:38.928Z,2.30
2022-11-16T05:25:06.938Z,2.30
2022-11-16T05:27:34.048Z,2.30
2022-11-16T05:30:00.920Z,2.30
2022-11-16T05:32:28.203Z,2.30
2022-11-16T05:34:54.966Z,2.30
2022-11-16T05:37:21.725Z,2.30
2022-11-16T05:39:48.622Z,2.30
2022-11-16T05:42:15.822Z,2.30
2022-11-16T05:44:42.556Z,2.30
2022-11-16T05:47:09.314Z,2.20
2022-11-16T05:49:36.070Z,2.30
2022-11-16T05:52:03.268Z,2.30
2022-11-16T05:54:31.319Z,2.30
2022-11-16T05:56:58.095Z,2.30
2022-11-16T05:59:24.971Z,2.30
2022-11-16T06:01:51.878Z,2.40
2022-11-16T06:04:24.207Z,2.40
2022-11-16T06:06:51.235Z,2.40
2022-11-16T06:09:18.015Z,2.40
2022-11-16T06:11:44.759Z,2.40
2022-11-16T06:14:11.466Z,2.40
2022-11-16T06:16:38.367Z,2.40
2022-11-16T06:19:05.144Z,2.40
2022-11-16T06:21:33.119Z,2.40
2022-11-16T06:24:00.201Z,2.40
2022-11-16T06:26:27.037Z,2.40
2022-11-16T06:28:55.004Z,2.50
2022-11-16T06:31:22.255Z,2.50
2022-11-16T06:33:48.974Z,2.40
2022-11-16T06:36:15.809Z,2.40
2022-11-16T06:38:42.538Z,2.50
2022-11-16T06:41:09.311Z,2.40
2022-11-16T06:43:36.321Z,2.40
2022-11-16T06:46:03.291Z,2.40
2022-11-16T06:48:30.839Z,2.50
2022-11-16T06:50:57.693Z,2.50
2022-11-16T06:53:29.037Z,2.50
2022-11-16T06:56:00.701Z,2.50
2022-11-16T06:58:28.731Z,2.40
2022-11-16T07:00:55.497Z,2.40
2022-11-16T07:03:22.220Z,2.40
2022-11-16T07:05:48.989Z,2.50
2022-11-16T07:08:15.708Z,2.50
2022-11-16T07:10:42.406Z,2.50
2022-11-16T07:13:09.202Z,2.50
2022-11-16T07:15:36.016Z,2.50
2022-11-16T07:18:03.632Z,2.50
2022-11-16T07:20:30.417Z,2.40
2022-11-16T07:22:59.143Z,2.40
2022-11-16T07:25:25.922Z,2.40
2022-11-16T07:27:52.659Z,2.40
2022-11-16T07:30:19.432Z,2.40
2022-11-16T07:32:46.227Z,2.40
2022-11-16T07:35:12.964Z,2.50
2022-11-16T07:37:39.724Z,2.50
2022-11-16T07:40:06.802Z,2.50
2022-11-16T07:42:33.667Z,2.60
2022-11-16T07:45:00.405Z,2.60
2022-11-16T07:47:27.163Z,2.60
2022-11-16T07:49:53.945Z,2.70
2022-11-16T07:52:20.633Z,2.60
2022-11-16T07:54:47.321Z,2.70
2022-11-16T07:57:14.089Z,2.70
2022-11-16T07:59:40.948Z,2.70
2022-11-16T08:02:09.533Z,2.70
2022-11-16T08:04:38.770Z,2.70
2022-11-16T08:07:05.882Z,2.70
2022-11-16T08:09:32.741Z,2.70
2022-11-16T08:11:59.859Z,2.70
2022-11-16T08:14:26.609Z,2.70
2022-11-16T08:16:53.323Z,2.80
2022-11-16T08:19:20.021Z,2.80
2022-11-16T08:21:46.876Z,2.90
2022-11-16T08:24:13.655Z,2.80
2022-11-16T08:26:40.433Z,2.80
2022-11-16T08:29:07.239Z,2.70
2022-11-16T08:31:34.205Z,2.80
2022-11-16T08:34:01.074Z,2.90
2022-11-16T08:36:27.793Z,2.90
2022-11-16T08:38:54.634Z,2.90
2022-11-16T08:41:21.517Z,2.90
2022-11-16T08:43:50.825Z,2.80
2022-11-16T08:46:17.833Z,2.80
2022-11-16T08:48:44.847Z,2.90
2022-11-16T08:51:18.563Z,2.90
2022-11-16T08:53:48.382Z,3.10
2022-11-16T08:56:16.201Z,3.00
2022-11-16T08:58:43.800Z,3.10
2022-11-16T09:01:12.423Z,3.20
2022-11-16T09:03:39.823Z,3.20
2022-11-16T09:06:07.172Z,3.20
2022-11-16T09:08:34.600Z,3.20
2022-11-16T09:11:04.104Z,3.10
2022-11-16T09:13:30.840Z,3.10
2022-11-16T09:15:58.236Z,3.10
2022-11-16T09:18:25.237Z,3.00
2022-11-16T09:20:52.016Z,2.90
2022-11-16T09:23:24.908Z,2.90
2022-11-16T09:25:52.432Z,2.90
2022-11-16T09:28:19.713Z,2.90
2022-11-16T09:30:47.611Z,2.90
2022-11-16T09:33:14.306Z,2.90
2022-11-16T09:35:41.077Z,2.90
2022-11-16T09:38:09.913Z,2.90
2022-11-16T09:40:37.777Z,2.90
2022-11-16T09:43:30.617Z,2.80
2022-11-16T09:46:26.811Z,2.90
2022-11-16T09:48:57.068Z,2.90
2022-11-16T09:51:24.458Z,3.00
2022-11-16T09:53:59.939Z,3.00
2022-11-16T09:56:28.598Z,3.00
2022-11-16T09:58:55.625Z,3.00
2022-11-16T10:01:24.176Z,3.00
2022-11-16T10:03:54.428Z,3.00
2022-11-16T10:06:22.863Z,3.00
2022-11-16T10:08:51.491Z,3.00
2022-11-16T10:11:37.138Z,3.10
2022-11-16T10:14:13.123Z,3.10
2022-11-16T10:16:40.105Z,3.10
2022-11-16T10:19:19.299Z,3.20
2022-11-16T10:22:01.555Z,3.20
2022-11-16T10:24:43.308Z,3.20
2022-11-16T10:27:15.557Z,3.20
2022-11-16T10:29:46.677Z,3.10
2022-11-16T10:32:13.564Z,3.10
2022-11-16T10:34:49.347Z,3.20
2022-11-16T10:37:16.139Z,3.20
2022-11-16T10:39:42.950Z,3.20
2022-11-16T10:42:11.455Z,3.30
2022-11-16T10:44:42.080Z,3.30
2022-11-16T10:47:34.011Z,3.30
2022-11-16T10:50:02.352Z,3.20
2022-11-16T10:52:29.143Z,3.30
2022-11-16T10:54:55.845Z,3.40
2022-11-16T10:57:24.905Z,3.30
2022-11-16T10:59:56.008Z,3.30
2022-11-16T11:02:35.631Z,3.30
2022-11-16T11:05:02.425Z,3.30
2022-11-16T11:07:30.617Z,3.30
2022-11-16T11:09:57.417Z,3.20
2022-11-16T11:12:40.439Z,3.30
2022-11-16T11:15:25.503Z,3.30
2022-11-16T11:18:11.675Z,3.20
2022-11-16T11:20:44.718Z,3.20
2022-11-16T11:23:19.119Z,3.20
2022-11-16T11:25:50.739Z,3.20
2022-11-16T11:28:26.653Z,3.20
2022-11-16T11:30:54.948Z,3.20
2022-11-16T11:33:23.748Z,3.20
2022-11-16T11:35:58.885Z,3.20
2022-11-16T11:38:25.923Z,3.20
2022-11-16T11:40:57.730Z,3.20
2022-11-16T11:43:25.246Z,3.20
2022-11-16T11:45:55.595Z,3.10
2022-11-16T11:48:25.711Z,3.20
2022-11-16T11:50:57.300Z,3.10
2022-11-16T11:53:36.313Z,3.20
2022-11-16T11:56:03.594Z,3.20
2022-11-16T11:58:32.520Z,3.20
2022-11-16T12:01:02.247Z,3.20
2022-11-16T12:03:43.367Z,3.10
2022-11-16T12:06:15.346Z,3.10
2022-11-16T12:08:42.054Z,3.10
2022-11-16T12:11:08.872Z,3.20
2022-11-16T12:13:35.821Z,3.10
2022-11-16T12:16:11.650Z,3.20
2022-11-16T12:18:53.401Z,3.20
2022-11-16T12:21:40.550Z,3.20
2022-11-16T12:24:10.144Z,3.20
2022-11-16T12:26:46.099Z,3.20
2022-11-16T12:29:24.075Z,3.20
2022-11-16T12:32:15.602Z,3.20
2022-11-16T12:34:52.411Z,3.20
2022-11-16T12:37:22.237Z,3.20
2022-11-16T12:39:51.792Z,3.20
2022-11-16T12:42:25.668Z,3.20
2022-11-16T12:44:52.371Z,3.20
2022-11-16T12:47:31.753Z,3.20
2022-11-16T12:50:01.502Z,3.10
2022-11-16T12:52:42.270Z,3.00
2022-11-16T12:55:26.301Z,3.10
2022-11-16T12:58:12.548Z,3.00
2022-11-16T13:00:51.762Z,3.10
2022-11-16T13:03:42.601Z,3.10
2022-11-16T13:06:15.299Z,3.10
2022-11-16T13:08:50.016Z,3.10
2022-11-16T13:11:24.728Z,3.10
2022-11-16T13:13:53.876Z,3.10
2022-11-16T13:16:21.962Z,3.10
2022-11-16T13:18:48.768Z,3.10
2022-11-16T13:21:38.793Z,3.00
2022-11-16T13:24:08.655Z,3.00
2022-11-16T13:26:54.327Z,2.90
2022-11-16T13:46:55.841Z,2.80
2022-11-16T14:26:38.599Z,2.50
2022-11-16T14:34:00.623Z,2.50
2022-11-16T15:01:02.918Z,2.30
2022-11-16T15:05:58.717Z,2.40
2022-11-16T15:15:50.242Z,2.20
2022-11-16T15:28:13.250Z,2.20
2022-11-16T15:35:35.547Z,2.30
2022-11-16T15:38:05.383Z,2.30
2022-11-16T15:43:00.159Z,2.20
2022-11-16T15:57:56.208Z,2.20
2022-11-16T16:00:23.636Z,2.20
2022-11-16T16:22:35.787Z,2.10
2022-11-16T16:32:24.406Z,2.10
2022-11-16T16:39:45.802Z,2.10
2022-11-16T16:42:16.418Z,2.10
2022-11-16T16:54:32.027Z,2.10
2022-11-16T17:14:14.922Z,2.10
2022-11-16T17:24:03.283Z,2.20
2022-11-16T17:33:51.861Z,2.10
2022-11-16T17:36:18.898Z,2.10
2022-11-16T17:41:15.146Z,2.20
2022-11-16T17:46:10.176Z,2.10
2022-11-16T17:55:59.827Z,1.90
2022-11-16T17:58:27.338Z,1.90
2022-11-16T18:03:24.046Z,1.80
2022-11-16T18:05:51.863Z,1.80
2022-11-16T18:18:09.380Z,1.60
2022-11-16T18:23:03.897Z,1.60
2022-11-16T18:25:30.750Z,1.50
2022-11-16T18:50:02.751Z,1.40
2022-11-16T19:04:45.275Z,1.40
2022-11-16T19:21:58.439Z,1.40
2022-11-16T19:24:25.285Z,1.40
2022-11-16T19:29:19.359Z,1.50
2022-11-16T19:34:13.573Z,1.50
2022-11-16T19:41:34.559Z,1.50
2022-11-16T19:44:01.963Z,1.40
2022-11-16T19:46:33.099Z,1.40
2022-11-16T19:56:22.589Z,1.50
2022-11-16T20:01:23.130Z,1.50
2022-11-16T20:03:50.084Z,1.50
2022-11-16T20:06:20.379Z,1.50
2022-11-16T20:08:48.729Z,1.50
2022-11-16T20:28:28.327Z,1.50
2022-11-16T20:30:55.034Z,1.40
2022-11-16T20:33:21.752Z,1.40
2022-11-16T20:38:15.567Z,1.40
2022-11-16T20:40:42.269Z,1.50
2022-11-16T20:48:08.242Z,1.40
2022-11-16T20:50:35.038Z,1.40
2022-11-16T20:53:01.854Z,1.40
2022-11-16T21:02:50.060Z,1.40
2022-11-16T21:07:44.157Z,1.30
2022-11-16T21:10:19.976Z,1.30
2022-11-16T21:13:05.526Z,1.20
2022-11-16T21:17:59.480Z,1.20
2022-11-16T21:20:27.789Z,1.20
2022-11-16T21:22:55.244Z,1.20
2022-11-16T21:27:49.258Z,1.20
2022-11-16T21:30:16.286Z,1.10
2022-11-16T21:32:46.565Z,1.20
2022-11-16T21:35:13.351Z,1.20
2022-11-16T21:37:40.087Z,1.20
2022-11-16T21:40:07.137Z,1.20
2022-11-16T21:42:33.896Z,1.20
2022-11-16T21:45:00.634Z,1.20
2022-11-16T21:47:27.437Z,1.20
2022-11-16T21:50:24.846Z,1.20
2022-11-16T21:55:08.176Z,1.20
2022-11-16T21:57:34.934Z,1.20
2022-11-16T22:00:01.676Z,1.20
2022-11-16T22:02:28.470Z,1.10
2022-11-16T22:05:13.572Z,1.10
2022-11-16T22:07:41.139Z,1.10
2022-11-16T22:10:11.523Z,1.10
2022-11-16T22:12:38.567Z,1.20
2022-11-16T22:15:06.457Z,1.20
2022-11-16T22:17:33.559Z,1.10
2022-11-16T22:20:00.359Z,1.10
2022-11-16T22:22:27.571Z,1.10
2022-11-16T22:24:54.418Z,1.10
2022-11-16T22:27:21.332Z,1.20
2022-11-16T22:34:42.539Z,1.20
2022-11-16T22:39:37.779Z,1.20
2022-11-16T22:42:04.610Z,1.20
2022-11-16T22:44:31.367Z,1.10
2022-11-16T22:46:58.203Z,1.10
2022-11-16T22:49:25.117Z,1.10
2022-11-16T22:51:52.054Z,1.10
2022-11-16T22:54:18.882Z,1.10
2022-11-16T22:59:12.785Z,1.00
2022-11-16T23:01:39.655Z,1.10
2022-11-16T23:04:06.430Z,1.10
2022-11-16T23:06:33.159Z,1.00
2022-11-16T23:08:59.884Z,1.00
2022-11-16T23:11:45.634Z,1.00
2022-11-16T23:16:58.173Z,1.00
2022-11-16T23:25:15.256Z,1.00
2022-11-16T23:27:45.040Z,1.00
2022-11-16T23:35:07.877Z,0.90
2022-11-16T23:37:34.829Z,0.90
2022-11-16T23:47:42.266Z,0.80
2022-11-16T23:52:36.147Z,0.80
2022-11-16T23:57:30.006Z,0.70
